»·PEaware :: AAL1325 KLAX-KSAN

AAL1325 :: KLAX-KSAN

FLIGHT INFORMATION

Flight Status: Arrived
Operator:
American Airlines
More flights by this operator :: More flights under this callsign
Pilot: Matthew D. (16794)
Aircraft: BOEING 737-800
(B738)
More flights by this aircraft type
Origin: KLAX Los Angeles Intl
United States
Destination: KSAN San Diego Intl-Lindbergh
United States
More flights between these airports :: More routes between these airports
Route: +LAXX1 MZB
File this flight plan on PilotEdge
Remarks: PBN / A1B1C1D1S1S2 DOF / 171005 REG / N806SB OPR / AAL RMK / TCAS SIMBRIEF
Altitude:
(Current/Filed)
11,000ft
Speed:
(Current/Filed)
382kts
Departed: 04-Oct-17 06:19 PM
Arrived: 04-Oct-17 07:32 PM
Distance/Time
Traveled:
95nm/1:13
Distance/Time
To Go:
Arrived

Flight Plot

Page will automatically refresh every two minutes.

Flight plan parsing failed; only flown route is shown


Map Options




Map Legend


Flown Route
Filed Route
Departure Airport
Arrival Airport
Navaid (VOR, NDB)
Fix

Horizontal Profiles

Position Reports

Time Latitude Longitude Heading Altitude Ground
Speed
04-Oct-17 17:51 33.940472 -118.407495 99 133ft 0kts
04-Oct-17 17:52 33.940472 -118.407495 99 133ft 0kts
04-Oct-17 17:53 33.940583 -118.408089 124 133ft 3kts
04-Oct-17 17:54 33.940939 -118.408251 189 133ft 0kts
04-Oct-17 17:55 33.940898 -118.408260 189 133ft 0kts
04-Oct-17 17:56 33.940840 -118.408271 188 133ft 1kts
04-Oct-17 17:57 33.940444 -118.408252 174 133ft 5kts
04-Oct-17 17:58 33.939605 -118.408138 174 133ft 10kts
04-Oct-17 17:59 33.939420 -118.408114 174 133ft 2kts
04-Oct-17 18:00 33.939012 -118.407926 143 133ft 6kts
04-Oct-17 18:01 33.938415 -118.407356 143 133ft 10kts
04-Oct-17 18:02 33.938145 -118.406224 86 133ft 14kts
04-Oct-17 18:03 33.938278 -118.404551 83 133ft 18kts
04-Oct-17 18:04 33.938508 -118.402548 82 133ft 21kts
04-Oct-17 18:05 33.938774 -118.400164 82 133ft 25kts
04-Oct-17 18:06 33.939054 -118.397404 82 133ft 28kts
04-Oct-17 18:07 33.939364 -118.394214 83 133ft 32kts
04-Oct-17 18:08 33.939748 -118.390633 82 133ft 35kts
04-Oct-17 18:09 33.939977 -118.388377 84 133ft 17kts
04-Oct-17 18:10 33.940152 -118.386461 83 133ft 15kts
04-Oct-17 18:11 33.940308 -118.384917 83 133ft 13kts
04-Oct-17 18:12 33.940447 -118.383565 83 133ft 10kts
04-Oct-17 18:13 33.940566 -118.382403 83 133ft 8kts
04-Oct-17 18:14 33.940658 -118.381517 83 133ft 6kts
04-Oct-17 18:15 33.940704 -118.380916 93 133ft 3kts
04-Oct-17 18:16 33.940680 -118.380761 105 133ft 0kts
04-Oct-17 18:17 33.940680 -118.380761 105 133ft 0kts
04-Oct-17 18:18 33.940680 -118.380761 105 133ft 0kts
04-Oct-17 18:19 33.940680 -118.380761 105 133ft 0kts
04-Oct-17 18:20 33.940674 -118.380733 105 133ft 0kts
04-Oct-17 18:21 33.940547 -118.380461 129 133ft 4kts
04-Oct-17 18:22 33.939928 -118.380437 230 133ft 9kts
04-Oct-17 18:23 33.939561 -118.383007 263 134ft 71kts
04-Oct-17 18:24 33.938342 -118.395694 263 330ft 160kts
04-Oct-17 18:25 33.935760 -118.418722 262 1460ft 207kts
04-Oct-17 18:26 33.929906 -118.446626 237 2702ft 203kts
04-Oct-17 18:27 33.908345 -118.462689 187 2859ft 226kts
04-Oct-17 18:28 33.880988 -118.465283 207 4777ft 223kts
04-Oct-17 18:29 33.864896 -118.486616 239 5889ft 186kts
04-Oct-17 18:30 33.853796 -118.505736 236 7611ft 153kts
04-Oct-17 18:31 33.838895 -118.528587 225 7950ft 239kts
04-Oct-17 18:32 33.808691 -118.543538 186 8080ft 282kts
04-Oct-17 18:33 33.773563 -118.542718 182 8757ft 287kts
04-Oct-17 18:34 33.736954 -118.541399 181 9515ft 288kts
04-Oct-17 18:35 33.701915 -118.540198 181 9968ft 298kts
04-Oct-17 18:36 33.663345 -118.539120 181 9995ft 322kts
04-Oct-17 18:37 33.623683 -118.531031 158 10098ft 344kts
04-Oct-17 18:38 33.592128 -118.500959 129 10625ft 351kts
04-Oct-17 18:39 33.574086 -118.451335 101 10807ft 370kts
04-Oct-17 18:40 33.567422 -118.398317 99 10807ft 368kts
04-Oct-17 18:41 33.561288 -118.347660 99 10799ft 368kts
04-Oct-17 18:42 33.555604 -118.300754 99 10793ft 368kts
04-Oct-17 18:43 33.550585 -118.259418 99 10791ft 368kts
04-Oct-17 18:44 33.547620 -118.235037 99 10789ft 368kts
04-Oct-17 18:45 33.544128 -118.206385 99 10786ft 368kts
04-Oct-17 18:46 33.538652 -118.161567 99 10782ft 368kts
04-Oct-17 18:47 33.531734 -118.105150 99 10776ft 369kts
04-Oct-17 18:48 33.526066 -118.059025 99 10771ft 367kts
04-Oct-17 18:49 33.521134 -118.019070 99 10771ft 367kts
04-Oct-17 18:50 33.515569 -117.974259 99 10771ft 367kts
04-Oct-17 18:51 33.509875 -117.928538 99 10771ft 367kts
04-Oct-17 18:52 33.504308 -117.883941 99 10771ft 367kts
04-Oct-17 18:53 33.498413 -117.836825 99 10771ft 367kts
04-Oct-17 18:54 33.492671 -117.790797 99 10935ft 366kts
04-Oct-17 18:55 33.486861 -117.744429 99 10989ft 368kts
04-Oct-17 18:56 33.473226 -117.698760 124 10989ft 364kts
04-Oct-17 18:57 33.447366 -117.661742 135 10999ft 361kts
04-Oct-17 18:58 33.420780 -117.628793 136 10999ft 360kts
04-Oct-17 18:59 33.392776 -117.595388 137 11002ft 360kts
04-Oct-17 19:00 33.363590 -117.561067 137 11006ft 360kts
04-Oct-17 19:01 33.334575 -117.527118 137 10982ft 335kts
04-Oct-17 19:02 33.308779 -117.496987 138 10864ft 309kts
04-Oct-17 19:03 33.285859 -117.470244 138 10871ft 286kts
04-Oct-17 19:04 33.263722 -117.444517 138 10888ft 287kts
04-Oct-17 19:05 33.240249 -117.420421 153 10650ft 289kts
04-Oct-17 19:06 33.209863 -117.405699 162 10046ft 285kts
04-Oct-17 19:07 33.178913 -117.392135 162 9424ft 283kts
04-Oct-17 19:08 33.147946 -117.378877 162 8800ft 282kts
04-Oct-17 19:09 33.115744 -117.365240 162 8150ft 281kts
04-Oct-17 19:10 33.082255 -117.351137 162 7474ft 281kts
04-Oct-17 19:11 33.051514 -117.338205 162 7023ft 273kts
04-Oct-17 19:12 33.021556 -117.325596 162 7000ft 267kts
04-Oct-17 19:13 32.991103 -117.312826 162 6768ft 271kts
04-Oct-17 19:14 32.962157 -117.300691 162 6351ft 267kts
04-Oct-17 19:15 32.934636 -117.289147 162 5953ft 266kts
04-Oct-17 19:16 32.904967 -117.276710 162 5521ft 263kts
04-Oct-17 19:17 32.875287 -117.264287 162 5080ft 258kts
04-Oct-17 19:18 32.850002 -117.253699 162 4995ft 242kts
04-Oct-17 19:19 32.825910 -117.243610 162 4986ft 223kts
04-Oct-17 19:20 32.806028 -117.227538 126 4750ft 229kts
04-Oct-17 19:21 32.792874 -117.202015 121 4374ft 230kts
04-Oct-17 19:22 32.779822 -117.176069 121 4036ft 228kts
04-Oct-17 19:23 32.766772 -117.150150 121 4008ft 223kts
04-Oct-17 19:24 32.754664 -117.126066 121 3884ft 228kts
04-Oct-17 19:25 32.741999 -117.100893 121 3500ft 229kts
04-Oct-17 19:26 32.729064 -117.075136 121 3090ft 230kts
04-Oct-17 19:27 32.712234 -117.054432 169 3006ft 207kts
04-Oct-17 19:28 32.692298 -117.064224 246 3045ft 169kts
04-Oct-17 19:29 32.692509 -117.086805 281 3028ft 168kts
04-Oct-17 19:30 32.697512 -117.106712 292 2935ft 137kts
04-Oct-17 19:31 32.706318 -117.121338 319 2581ft 136kts
04-Oct-17 19:32 32.714211 -117.131448 311 2173ft 143kts
04-Oct-17 19:33 32.723897 -117.148457 294 1500ft 146kts
04-Oct-17 19:34 32.728695 -117.169116 287 475ft 146kts
04-Oct-17 19:35 32.732797 -117.186839 287 47ft 115kts
04-Oct-17 19:36 32.734493 -117.194276 258 25ft 10kts
04-Oct-17 19:37 32.734197 -117.194970 230 25ft 0kts
04-Oct-17 19:38 32.734197 -117.194970 230 25ft 0kts
04-Oct-17 19:39 32.734197 -117.194970 230 25ft 0kts
04-Oct-17 19:40 32.734197 -117.194970 230 25ft 0kts
04-Oct-17 19:41 32.734067 -117.195158 231 25ft 5kts
04-Oct-17 19:42 32.733465 -117.195944 211 25ft 7kts
04-Oct-17 19:43 32.733343 -117.196019 203 25ft 0kts
04-Oct-17 19:44 32.733343 -117.196019 203 25ft 0kts
04-Oct-17 19:45 32.733343 -117.196019 203 25ft 0kts

Navigation Log

Ident Type
Flight plan parsing failed, navigation log unavailable